sensor_id;sensor_type;location;lat;lon;timestamp;temperature;humidity
31731;DHT22;18310;55.586;12.286;2022-08-19T00:00:04;23.60;79.80
31731;DHT22;18310;55.586;12.286;2022-08-19T00:03:11;23.80;79.90
31731;DHT22;18310;55.586;12.286;2022-08-19T00:09:22;23.70;80.10
31731;DHT22;18310;55.586;12.286;2022-08-19T00:18:35;23.60;80.20
31731;DHT22;18310;55.586;12.286;2022-08-19T00:27:51;23.70;80.30
31731;DHT22;18310;55.586;12.286;2022-08-19T00:30:54;23.70;81.10
31731;DHT22;18310;55.586;12.286;2022-08-19T00:33:59;24.00;82.40
31731;DHT22;18310;55.586;12.286;2022-08-19T00:37:03;23.50;81.60
31731;DHT22;18310;55.586;12.286;2022-08-19T00:40:10;23.70;82.40
31731;DHT22;18310;55.586;12.286;2022-08-19T00:43:19;23.80;81.90
31731;DHT22;18310;55.586;12.286;2022-08-19T00:46:25;23.50;82.00
31731;DHT22;18310;55.586;12.286;2022-08-19T00:49:32;23.60;81.40
31731;DHT22;18310;55.586;12.286;2022-08-19T00:52:42;23.50;81.40
31731;DHT22;18310;55.586;12.286;2022-08-19T00:55:50;23.50;81.10
31731;DHT22;18310;55.586;12.286;2022-08-19T00:58:56;23.50;81.50
31731;DHT22;18310;55.586;12.286;2022-08-19T01:02:01;23.50;81.50
31731;DHT22;18310;55.586;12.286;2022-08-19T01:05:09;23.70;81.60
31731;DHT22;18310;55.586;12.286;2022-08-19T01:08:17;23.60;81.60
31731;DHT22;18310;55.586;12.286;2022-08-19T01:11:22;23.70;82.00
31731;DHT22;18310;55.586;12.286;2022-08-19T01:14:25;23.70;82.00
31731;DHT22;18310;55.586;12.286;2022-08-19T01:17:29;23.50;81.30
31731;DHT22;18310;55.586;12.286;2022-08-19T01:20:34;24.50;83.00
31731;DHT22;18310;55.586;12.286;2022-08-19T01:23:39;23.70;81.90
31731;DHT22;18310;55.586;12.286;2022-08-19T01:26:45;23.20;81.80
31731;DHT22;18310;55.586;12.286;2022-08-19T01:29:50;23.60;82.00
31731;DHT22;18310;55.586;12.286;2022-08-19T01:32:54;23.60;82.00
31731;DHT22;18310;55.586;12.286;2022-08-19T01:36:05;23.80;82.20
31731;DHT22;18310;55.586;12.286;2022-08-19T01:39:14;23.30;82.30
31731;DHT22;18310;55.586;12.286;2022-08-19T01:42:19;23.70;82.10
31731;DHT22;18310;55.586;12.286;2022-08-19T01:45:32;23.60;81.50
31731;DHT22;18310;55.586;12.286;2022-08-19T01:48:39;23.70;82.00
31731;DHT22;18310;55.586;12.286;2022-08-19T01:51:44;24.30;82.40
31731;DHT22;18310;55.586;12.286;2022-08-19T01:54:48;23.30;81.70
31731;DHT22;18310;55.586;12.286;2022-08-19T01:57:55;23.60;81.60
31731;DHT22;18310;55.586;12.286;2022-08-19T02:01:04;23.70;82.50
31731;DHT22;18310;55.586;12.286;2022-08-19T02:04:10;23.60;81.60
31731;DHT22;18310;55.586;12.286;2022-08-19T02:07:14;23.20;81.50
31731;DHT22;18310;55.586;12.286;2022-08-19T02:10:20;23.60;81.40
31731;DHT22;18310;55.586;12.286;2022-08-19T02:13:25;23.50;81.90
31731;DHT22;18310;55.586;12.286;2022-08-19T02:16:29;23.60;82.00
31731;DHT22;18310;55.586;12.286;2022-08-19T02:19:33;23.40;81.90
31731;DHT22;18310;55.586;12.286;2022-08-19T02:22:40;23.60;82.00
31731;DHT22;18310;55.586;12.286;2022-08-19T02:25:47;23.60;82.10
31731;DHT22;18310;55.586;12.286;2022-08-19T02:28:51;25.80;83.50
31731;DHT22;18310;55.586;12.286;2022-08-19T02:31:54;23.60;81.90
31731;DHT22;18310;55.586;12.286;2022-08-19T02:34:57;25.80;83.20
31731;DHT22;18310;55.586;12.286;2022-08-19T02:38:01;23.60;81.90
31731;DHT22;18310;55.586;12.286;2022-08-19T02:41:25;23.50;81.90
31731;DHT22;18310;55.586;12.286;2022-08-19T02:44:30;23.50;82.10
31731;DHT22;18310;55.586;12.286;2022-08-19T02:47:34;23.50;82.00
31731;DHT22;18310;55.586;12.286;2022-08-19T02:50:37;23.50;81.90
31731;DHT22;18310;55.586;12.286;2022-08-19T02:53:54;23.60;82.10
31731;DHT22;18310;55.586;12.286;2022-08-19T03:00:04;23.50;81.60
31731;DHT22;18310;55.586;12.286;2022-08-19T03:03:10;23.60;82.30
31731;DHT22;18310;55.586;12.286;2022-08-19T03:06:14;26.40;84.00
31731;DHT22;18310;55.586;12.286;2022-08-19T03:09:19;23.60;82.70
31731;DHT22;18310;55.586;12.286;2022-08-19T03:12:24;23.70;81.80
31731;DHT22;18310;55.586;12.286;2022-08-19T03:15:28;23.90;81.90
31731;DHT22;18310;55.586;12.286;2022-08-19T03:18:31;23.60;81.80
31731;DHT22;18310;55.586;12.286;2022-08-19T03:21:36;23.60;81.70
31731;DHT22;18310;55.586;12.286;2022-08-19T03:24:39;26.10;83.20
31731;DHT22;18310;55.586;12.286;2022-08-19T03:27:44;24.40;82.60
31731;DHT22;18310;55.586;12.286;2022-08-19T03:30:57;23.60;81.60
31731;DHT22;18310;55.586;12.286;2022-08-19T03:34:02;23.60;81.70
31731;DHT22;18310;55.586;12.286;2022-08-19T03:37:10;22.00;80.50
31731;DHT22;18310;55.586;12.286;2022-08-19T03:40:14;23.60;81.40
31731;DHT22;18310;55.586;12.286;2022-08-19T03:43:19;23.90;81.50
31731;DHT22;18310;55.586;12.286;2022-08-19T03:46:24;23.60;81.30
31731;DHT22;18310;55.586;12.286;2022-08-19T03:49:30;23.60;81.10
31731;DHT22;18310;55.586;12.286;2022-08-19T03:52:35;23.70;81.40
31731;DHT22;18310;55.586;12.286;2022-08-19T03:55:40;23.80;81.50
31731;DHT22;18310;55.586;12.286;2022-08-19T03:58:45;23.60;81.50
31731;DHT22;18310;55.586;12.286;2022-08-19T04:01:48;25.80;82.90
31731;DHT22;18310;55.586;12.286;2022-08-19T04:04:53;23.50;81.00
31731;DHT22;18310;55.586;12.286;2022-08-19T04:07:57;23.60;81.40
31731;DHT22;18310;55.586;12.286;2022-08-19T04:11:00;23.50;81.50
31731;DHT22;18310;55.586;12.286;2022-08-19T04:14:05;23.50;81.90
31731;DHT22;18310;55.586;12.286;2022-08-19T04:17:09;23.50;81.40
31731;DHT22;18310;55.586;12.286;2022-08-19T04:20:12;23.50;81.40
31731;DHT22;18310;55.586;12.286;2022-08-19T04:23:16;24.40;82.40
31731;DHT22;18310;55.586;12.286;2022-08-19T04:26:22;23.60;81.40
31731;DHT22;18310;55.586;12.286;2022-08-19T04:29:28;23.90;81.70
31731;DHT22;18310;55.586;12.286;2022-08-19T04:32:32;23.50;81.10
31731;DHT22;18310;55.586;12.286;2022-08-19T04:35:42;23.60;81.50
31731;DHT22;18310;55.586;12.286;2022-08-19T04:38:47;23.60;81.40
31731;DHT22;18310;55.586;12.286;2022-08-19T04:41:51;23.60;81.30
31731;DHT22;18310;55.586;12.286;2022-08-19T04:45:14;23.70;81.20
31731;DHT22;18310;55.586;12.286;2022-08-19T04:48:18;23.60;81.20
31731;DHT22;18310;55.586;12.286;2022-08-19T04:51:28;23.20;80.80
31731;DHT22;18310;55.586;12.286;2022-08-19T04:54:32;23.70;81.00
31731;DHT22;18310;55.586;12.286;2022-08-19T04:57:39;23.70;80.30
31731;DHT22;18310;55.586;12.286;2022-08-19T05:00:44;23.70;80.70
31731;DHT22;18310;55.586;12.286;2022-08-19T05:03:48;23.80;81.00
31731;DHT22;18310;55.586;12.286;2022-08-19T05:06:52;23.80;81.20
31731;DHT22;18310;55.586;12.286;2022-08-19T05:10:02;24.90;81.90
31731;DHT22;18310;55.586;12.286;2022-08-19T05:13:07;23.90;81.40
31731;DHT22;18310;55.586;12.286;2022-08-19T05:16:15;26.50;83.40
31731;DHT22;18310;55.586;12.286;2022-08-19T05:19:19;24.10;81.50
31731;DHT22;18310;55.586;12.286;2022-08-19T05:22:40;24.20;81.40
31731;DHT22;18310;55.586;12.286;2022-08-19T05:25:44;24.40;81.00
31731;DHT22;18310;55.586;12.286;2022-08-19T05:28:48;24.50;80.80
31731;DHT22;18310;55.586;12.286;2022-08-19T05:31:57;24.60;80.60
31731;DHT22;18310;55.586;12.286;2022-08-19T05:35:01;25.60;80.90
31731;DHT22;18310;55.586;12.286;2022-08-19T05:38:05;24.80;80.10
31731;DHT22;18310;55.586;12.286;2022-08-19T05:41:09;24.90;80.10
31731;DHT22;18310;55.586;12.286;2022-08-19T05:44:15;23.40;78.80
31731;DHT22;18310;55.586;12.286;2022-08-19T05:47:21;25.10;79.10
31731;DHT22;18310;55.586;12.286;2022-08-19T05:50:25;25.20;78.70
31731;DHT22;18310;55.586;12.286;2022-08-19T05:53:28;25.20;78.40
31731;DHT22;18310;55.586;12.286;2022-08-19T05:56:31;25.30;78.10
31731;DHT22;18310;55.586;12.286;2022-08-19T05:59:38;25.40;77.90
31731;DHT22;18310;55.586;12.286;2022-08-19T06:02:42;25.00;77.30
31731;DHT22;18310;55.586;12.286;2022-08-19T06:05:46;25.40;77.30
31731;DHT22;18310;55.586;12.286;2022-08-19T06:08:52;25.40;77.50
31731;DHT22;18310;55.586;12.286;2022-08-19T06:11:57;27.90;79.20
31731;DHT22;18310;55.586;12.286;2022-08-19T06:15:05;25.40;77.20
31731;DHT22;18310;55.586;12.286;2022-08-19T06:18:12;25.50;77.00
31731;DHT22;18310;55.586;12.286;2022-08-19T06:21:17;25.50;77.10
31731;DHT22;18310;55.586;12.286;2022-08-19T06:24:22;27.90;79.00
31731;DHT22;18310;55.586;12.286;2022-08-19T06:27:26;25.50;76.90
31731;DHT22;18310;55.586;12.286;2022-08-19T06:30:31;25.60;77.00
31731;DHT22;18310;55.586;12.286;2022-08-19T06:33:36;25.70;77.00
31731;DHT22;18310;55.586;12.286;2022-08-19T06:36:44;25.70;76.40
31731;DHT22;18310;55.586;12.286;2022-08-19T06:39:51;25.70;76.00
31731;DHT22;18310;55.586;12.286;2022-08-19T06:42:54;25.70;76.00
31731;DHT22;18310;55.586;12.286;2022-08-19T06:46:01;25.70;76.00
31731;DHT22;18310;55.586;12.286;2022-08-19T06:49:08;25.70;75.90
31731;DHT22;18310;55.586;12.286;2022-08-19T06:52:15;25.80;75.60
31731;DHT22;18310;55.586;12.286;2022-08-19T06:55:19;26.00;75.20
31731;DHT22;18310;55.586;12.286;2022-08-19T06:58:22;25.70;75.60
31731;DHT22;18310;55.586;12.286;2022-08-19T07:01:27;25.80;75.60
31731;DHT22;18310;55.586;12.286;2022-08-19T07:04:33;25.80;75.70
31731;DHT22;18310;55.586;12.286;2022-08-19T07:07:38;25.80;75.50
31731;DHT22;18310;55.586;12.286;2022-08-19T07:10:48;25.90;75.70
31731;DHT22;18310;55.586;12.286;2022-08-19T07:13:51;26.00;75.70
31731;DHT22;18310;55.586;12.286;2022-08-19T07:16:56;26.10;75.80
31731;DHT22;18310;55.586;12.286;2022-08-19T07:20:01;25.00;75.10
31731;DHT22;18310;55.586;12.286;2022-08-19T07:23:10;26.40;75.70
31731;DHT22;18310;55.586;12.286;2022-08-19T07:26:19;26.60;75.50
31731;DHT22;18310;55.586;12.286;2022-08-19T07:29:30;26.80;74.90
31731;DHT22;18310;55.586;12.286;2022-08-19T07:32:35;27.00;74.10
31731;DHT22;18310;55.586;12.286;2022-08-19T07:35:40;27.10;73.90
31731;DHT22;18310;55.586;12.286;2022-08-19T07:38:46;27.20;72.20
31731;DHT22;18310;55.586;12.286;2022-08-19T07:41:50;27.30;72.60
31731;DHT22;18310;55.586;12.286;2022-08-19T07:44:54;27.50;72.30
31731;DHT22;18310;55.586;12.286;2022-08-19T07:47:57;27.50;72.20
31731;DHT22;18310;55.586;12.286;2022-08-19T07:51:05;27.60;71.80
31731;DHT22;18310;55.586;12.286;2022-08-19T07:54:10;27.70;70.90
31731;DHT22;18310;55.586;12.286;2022-08-19T07:57:13;27.70;71.10
31731;DHT22;18310;55.586;12.286;2022-08-19T08:00:16;26.80;70.30
31731;DHT22;18310;55.586;12.286;2022-08-19T08:03:26;27.90;71.00
31731;DHT22;18310;55.586;12.286;2022-08-19T08:06:45;27.90;70.10
31731;DHT22;18310;55.586;12.286;2022-08-19T08:10:07;27.90;69.70
31731;DHT22;18310;55.586;12.286;2022-08-19T08:13:22;28.00;69.70
31731;DHT22;18310;55.586;12.286;2022-08-19T08:16:27;27.30;69.20
31731;DHT22;18310;55.586;12.286;2022-08-19T08:19:33;28.00;69.50
31731;DHT22;18310;55.586;12.286;2022-08-19T08:22:43;27.90;69.30
31731;DHT22;18310;55.586;12.286;2022-08-19T08:26:04;27.90;68.30
31731;DHT22;18310;55.586;12.286;2022-08-19T08:29:08;28.00;69.10
31731;DHT22;18310;55.586;12.286;2022-08-19T08:32:13;28.00;69.10
31731;DHT22;18310;55.586;12.286;2022-08-19T08:35:18;27.90;68.80
31731;DHT22;18310;55.586;12.286;2022-08-19T08:38:25;28.00;69.00
31731;DHT22;18310;55.586;12.286;2022-08-19T08:41:43;28.00;68.70
31731;DHT22;18310;55.586;12.286;2022-08-19T08:44:55;27.90;68.40
31731;DHT22;18310;55.586;12.286;2022-08-19T08:48:08;28.00;68.30
31731;DHT22;18310;55.586;12.286;2022-08-19T08:51:28;28.10;68.40
31731;DHT22;18310;55.586;12.286;2022-08-19T08:54:39;28.30;68.70
31731;DHT22;18310;55.586;12.286;2022-08-19T08:58:00;28.40;68.10
31731;DHT22;18310;55.586;12.286;2022-08-19T09:01:09;28.50;67.80
31731;DHT22;18310;55.586;12.286;2022-08-19T09:04:13;28.70;67.80
31731;DHT22;18310;55.586;12.286;2022-08-19T09:07:25;28.90;67.90
31731;DHT22;18310;55.586;12.286;2022-08-19T09:10:44;29.10;66.30
31731;DHT22;18310;55.586;12.286;2022-08-19T09:14:05;29.20;66.00
31731;DHT22;18310;55.586;12.286;2022-08-19T09:17:34;29.40;65.10
31731;DHT22;18310;55.586;12.286;2022-08-19T09:20:40;29.50;65.90
31731;DHT22;18310;55.586;12.286;2022-08-19T09:23:43;29.60;65.40
31731;DHT22;18310;55.586;12.286;2022-08-19T09:26:53;29.70;65.10
31731;DHT22;18310;55.586;12.286;2022-08-19T09:29:58;29.70;64.20
31731;DHT22;18310;55.586;12.286;2022-08-19T09:33:02;29.80;64.40
31731;DHT22;18310;55.586;12.286;2022-08-19T09:36:08;30.00;64.30
31731;DHT22;18310;55.586;12.286;2022-08-19T09:39:22;30.00;63.50
31731;DHT22;18310;55.586;12.286;2022-08-19T09:42:38;30.10;63.10
31731;DHT22;18310;55.586;12.286;2022-08-19T09:45:52;30.00;62.40
31731;DHT22;18310;55.586;12.286;2022-08-19T09:48:58;29.90;62.20
31731;DHT22;18310;55.586;12.286;2022-08-19T09:52:08;29.80;62.30
31731;DHT22;18310;55.586;12.286;2022-08-19T09:55:14;29.60;62.50
31731;DHT22;18310;55.586;12.286;2022-08-19T09:58:19;28.40;61.90
31731;DHT22;18310;55.586;12.286;2022-08-19T10:01:29;29.30;63.00
31731;DHT22;18310;55.586;12.286;2022-08-19T10:04:33;29.20;63.40
31731;DHT22;18310;55.586;12.286;2022-08-19T10:07:54;29.10;63.70
31731;DHT22;18310;55.586;12.286;2022-08-19T10:10:58;29.00;63.80
31731;DHT22;18310;55.586;12.286;2022-08-19T10:14:24;28.90;63.80
31731;DHT22;18310;55.586;12.286;2022-08-19T10:17:27;28.60;63.50
31731;DHT22;18310;55.586;12.286;2022-08-19T10:20:34;28.70;64.10
31731;DHT22;18310;55.586;12.286;2022-08-19T10:23:40;29.00;64.70
31731;DHT22;18310;55.586;12.286;2022-08-19T10:26:47;28.60;64.40
31731;DHT22;18310;55.586;12.286;2022-08-19T10:30:01;28.60;64.90
31731;DHT22;18310;55.586;12.286;2022-08-19T10:33:04;28.50;65.10
31731;DHT22;18310;55.586;12.286;2022-08-19T10:36:14;28.10;64.90
31731;DHT22;18310;55.586;12.286;2022-08-19T10:39:20;28.40;65.30
31731;DHT22;18310;55.586;12.286;2022-08-19T10:42:24;28.40;65.50
31731;DHT22;18310;55.586;12.286;2022-08-19T10:45:29;28.40;65.60
31731;DHT22;18310;55.586;12.286;2022-08-19T10:48:33;28.30;65.70
31731;DHT22;18310;55.586;12.286;2022-08-19T10:51:38;28.20;65.90
31731;DHT22;18310;55.586;12.286;2022-08-19T10:54:59;28.10;66.10
31731;DHT22;18310;55.586;12.286;2022-08-19T10:58:21;28.10;66.20
31731;DHT22;18310;55.586;12.286;2022-08-19T11:01:27;28.00;66.30
31731;DHT22;18310;55.586;12.286;2022-08-19T11:04:31;29.10;67.50
31731;DHT22;18310;55.586;12.286;2022-08-19T11:07:37;27.80;66.70
31731;DHT22;18310;55.586;12.286;2022-08-19T11:10:41;27.70;66.90
31731;DHT22;18310;55.586;12.286;2022-08-19T11:13:51;27.60;67.10
31731;DHT22;18310;55.586;12.286;2022-08-19T11:16:56;27.50;67.50
31731;DHT22;18310;55.586;12.286;2022-08-19T11:20:00;27.40;68.20
31731;DHT22;18310;55.586;12.286;2022-08-19T11:23:05;26.00;67.60
31731;DHT22;18310;55.586;12.286;2022-08-19T11:26:09;27.20;68.50
31731;DHT22;18310;55.586;12.286;2022-08-19T11:29:13;27.00;68.60
31731;DHT22;18310;55.586;12.286;2022-08-19T11:32:18;27.10;68.90
31731;DHT22;18310;55.586;12.286;2022-08-19T11:35:21;26.90;68.90
31731;DHT22;18310;55.586;12.286;2022-08-19T11:38:25;26.80;68.70
31731;DHT22;18310;55.586;12.286;2022-08-19T11:41:28;26.70;68.20
31731;DHT22;18310;55.586;12.286;2022-08-19T11:44:31;26.50;68.40
31731;DHT22;18310;55.586;12.286;2022-08-19T11:47:38;26.50;68.60
31731;DHT22;18310;55.586;12.286;2022-08-19T11:50:42;26.30;69.10
31731;DHT22;18310;55.586;12.286;2022-08-19T11:53:45;26.20;69.40
31731;DHT22;18310;55.586;12.286;2022-08-19T11:56:49;26.30;70.00
31731;DHT22;18310;55.586;12.286;2022-08-19T11:59:52;26.10;70.00
31731;DHT22;18310;55.586;12.286;2022-08-19T12:02:57;26.10;70.30
31731;DHT22;18310;55.586;12.286;2022-08-19T12:06:03;26.10;70.80
31731;DHT22;18310;55.586;12.286;2022-08-19T12:09:09;26.20;71.60
31731;DHT22;18310;55.586;12.286;2022-08-19T12:12:13;26.20;71.90
31731;DHT22;18310;55.586;12.286;2022-08-19T12:15:16;26.10;71.90
31731;DHT22;18310;55.586;12.286;2022-08-19T12:18:21;26.20;72.20
31731;DHT22;18310;55.586;12.286;2022-08-19T12:21:26;26.20;72.30
31731;DHT22;18310;55.586;12.286;2022-08-19T12:24:31;26.20;72.40
31731;DHT22;18310;55.586;12.286;2022-08-19T12:27:35;26.20;72.50
31731;DHT22;18310;55.586;12.286;2022-08-19T12:30:42;26.30;72.00
31731;DHT22;18310;55.586;12.286;2022-08-19T12:33:47;28.20;73.60
31731;DHT22;18310;55.586;12.286;2022-08-19T12:36:50;26.30;72.20
31731;DHT22;18310;55.586;12.286;2022-08-19T12:39:53;26.40;71.80
31731;DHT22;18310;55.586;12.286;2022-08-19T12:42:57;26.40;71.50
31731;DHT22;18310;55.586;12.286;2022-08-19T12:46:00;26.50;71.40
31731;DHT22;18310;55.586;12.286;2022-08-19T12:49:07;26.40;70.40
31731;DHT22;18310;55.586;12.286;2022-08-19T12:52:30;26.50;71.00
31731;DHT22;18310;55.586;12.286;2022-08-19T12:55:33;26.40;70.70
31731;DHT22;18310;55.586;12.286;2022-08-19T12:58:37;29.40;72.70
31731;DHT22;18310;55.586;12.286;2022-08-19T13:01:40;26.40;70.40
31731;DHT22;18310;55.586;12.286;2022-08-19T13:04:45;26.40;70.40
31731;DHT22;18310;55.586;12.286;2022-08-19T13:07:49;26.40;70.20
31731;DHT22;18310;55.586;12.286;2022-08-19T13:10:54;26.40;69.90
31731;DHT22;18310;55.586;12.286;2022-08-19T13:13:58;26.20;70.10
31731;DHT22;18310;55.586;12.286;2022-08-19T13:17:03;26.40;70.50
31731;DHT22;18310;55.586;12.286;2022-08-19T13:20:10;26.40;71.30
31731;DHT22;18310;55.586;12.286;2022-08-19T13:23:14;26.30;71.10
31731;DHT22;18310;55.586;12.286;2022-08-19T13:26:18;26.40;70.30
31731;DHT22;18310;55.586;12.286;2022-08-19T13:29:22;26.40;69.70
31731;DHT22;18310;55.586;12.286;2022-08-19T13:32:43;25.00;68.70
31731;DHT22;18310;55.586;12.286;2022-08-19T13:36:06;26.40;70.00
31731;DHT22;18310;55.586;12.286;2022-08-19T13:39:11;26.30;69.50
31731;DHT22;18310;55.586;12.286;2022-08-19T13:42:15;26.30;68.40
31731;DHT22;18310;55.586;12.286;2022-08-19T13:45:21;26.30;69.50
31731;DHT22;18310;55.586;12.286;2022-08-19T13:48:26;26.30;69.30
31731;DHT22;18310;55.586;12.286;2022-08-19T13:51:31;25.30;68.60
31731;DHT22;18310;55.586;12.286;2022-08-19T13:54:34;26.20;69.30
31731;DHT22;18310;55.586;12.286;2022-08-19T13:57:38;26.30;69.90
31731;DHT22;18310;55.586;12.286;2022-08-19T14:00:43;26.30;69.40
31731;DHT22;18310;55.586;12.286;2022-08-19T14:03:48;26.30;69.00
31731;DHT22;18310;55.586;12.286;2022-08-19T14:06:53;26.30;69.20
31731;DHT22;18310;55.586;12.286;2022-08-19T14:09:56;26.30;69.10
31731;DHT22;18310;55.586;12.286;2022-08-19T14:13:02;26.20;69.10
31731;DHT22;18310;55.586;12.286;2022-08-19T14:16:07;26.20;70.20
31731;DHT22;18310;55.586;12.286;2022-08-19T14:19:12;26.20;69.50
31731;DHT22;18310;55.586;12.286;2022-08-19T14:22:16;26.50;70.10
31731;DHT22;18310;55.586;12.286;2022-08-19T14:25:24;26.20;70.20
31731;DHT22;18310;55.586;12.286;2022-08-19T14:28:29;26.10;70.20
31731;DHT22;18310;55.586;12.286;2022-08-19T14:31:33;26.20;70.60
31731;DHT22;18310;55.586;12.286;2022-08-19T14:34:36;26.10;70.60
31731;DHT22;18310;55.586;12.286;2022-08-19T14:37:42;26.40;71.00
31731;DHT22;18310;55.586;12.286;2022-08-19T14:40:47;26.10;71.00
31731;DHT22;18310;55.586;12.286;2022-08-19T14:43:52;26.10;71.40
31731;DHT22;18310;55.586;12.286;2022-08-19T14:46:56;26.10;71.40
31731;DHT22;18310;55.586;12.286;2022-08-19T14:50:00;26.90;72.30
31731;DHT22;18310;55.586;12.286;2022-08-19T14:53:08;26.10;72.30
31731;DHT22;18310;55.586;12.286;2022-08-19T14:56:15;26.00;72.70
31731;DHT22;18310;55.586;12.286;2022-08-19T14:59:21;26.00;72.80
31731;DHT22;18310;55.586;12.286;2022-08-19T15:02:25;26.00;73.40
31731;DHT22;18310;55.586;12.286;2022-08-19T15:05:36;25.90;72.90
31731;DHT22;18310;55.586;12.286;2022-08-19T15:08:42;25.90;72.90
31731;DHT22;18310;55.586;12.286;2022-08-19T15:11:47;25.40;72.70
31731;DHT22;18310;55.586;12.286;2022-08-19T15:14:51;27.30;74.10
31731;DHT22;18310;55.586;12.286;2022-08-19T15:17:57;25.70;73.20
31731;DHT22;18310;55.586;12.286;2022-08-19T15:21:04;25.70;73.40
31731;DHT22;18310;55.586;12.286;2022-08-19T15:24:10;25.70;73.70
31731;DHT22;18310;55.586;12.286;2022-08-19T15:27:15;25.60;74.10
31731;DHT22;18310;55.586;12.286;2022-08-19T15:30:21;25.60;74.20
31731;DHT22;18310;55.586;12.286;2022-08-19T15:33:26;25.60;74.60
31731;DHT22;18310;55.586;12.286;2022-08-19T15:36:30;26.60;75.30
31731;DHT22;18310;55.586;12.286;2022-08-19T15:39:34;25.60;74.70
31731;DHT22;18310;55.586;12.286;2022-08-19T15:42:39;25.60;75.20
31731;DHT22;18310;55.586;12.286;2022-08-19T15:45:45;25.50;74.50
31731;DHT22;18310;55.586;12.286;2022-08-19T15:48:52;25.60;74.70
31731;DHT22;18310;55.586;12.286;2022-08-19T15:52:00;25.50;74.90
31731;DHT22;18310;55.586;12.286;2022-08-19T15:55:06;26.00;75.30
31731;DHT22;18310;55.586;12.286;2022-08-19T15:58:16;25.50;75.30
31731;DHT22;18310;55.586;12.286;2022-08-19T16:01:37;25.50;75.00
31731;DHT22;18310;55.586;12.286;2022-08-19T16:08:19;25.50;74.80
31731;DHT22;18310;55.586;12.286;2022-08-19T16:11:27;25.40;75.20
31731;DHT22;18310;55.586;12.286;2022-08-19T16:14:34;22.90;74.00
31731;DHT22;18310;55.586;12.286;2022-08-19T16:17:39;25.30;75.40
31731;DHT22;18310;55.586;12.286;2022-08-19T16:20:43;25.30;76.20
31731;DHT22;18310;55.586;12.286;2022-08-19T16:23:48;25.30;75.60
31731;DHT22;18310;55.586;12.286;2022-08-19T16:26:54;25.30;75.90
31731;DHT22;18310;55.586;12.286;2022-08-19T16:29:58;25.20;76.10
31731;DHT22;18310;55.586;12.286;2022-08-19T16:33:01;25.70;76.80
31731;DHT22;18310;55.586;12.286;2022-08-19T16:36:05;25.20;75.90
31731;DHT22;18310;55.586;12.286;2022-08-19T16:39:11;25.10;75.80
31731;DHT22;18310;55.586;12.286;2022-08-19T16:42:17;25.20;76.00
31731;DHT22;18310;55.586;12.286;2022-08-19T16:45:21;23.40;75.20
31731;DHT22;18310;55.586;12.286;2022-08-19T16:48:27;25.10;76.30
31731;DHT22;18310;55.586;12.286;2022-08-19T16:51:32;25.10;76.70
31731;DHT22;18310;55.586;12.286;2022-08-19T16:54:35;24.50;76.00
31731;DHT22;18310;55.586;12.286;2022-08-19T16:57:41;25.00;76.10
31731;DHT22;18310;55.586;12.286;2022-08-19T17:00:44;25.00;76.60
31731;DHT22;18310;55.586;12.286;2022-08-19T17:03:49;24.90;76.40
31731;DHT22;18310;55.586;12.286;2022-08-19T17:06:53;25.00;76.70
31731;DHT22;18310;55.586;12.286;2022-08-19T17:09:57;24.90;76.50
31731;DHT22;18310;55.586;12.286;2022-08-19T17:13:01;24.90;77.40
31731;DHT22;18310;55.586;12.286;2022-08-19T17:16:05;23.80;76.20
31731;DHT22;18310;55.586;12.286;2022-08-19T17:19:08;25.10;77.00
31731;DHT22;18310;55.586;12.286;2022-08-19T17:25:16;24.70;76.90
31731;DHT22;18310;55.586;12.286;2022-08-19T17:28:23;23.70;77.50
31731;DHT22;18310;55.586;12.286;2022-08-19T17:31:29;24.70;77.20
31731;DHT22;18310;55.586;12.286;2022-08-19T17:34:33;24.70;77.40
31731;DHT22;18310;55.586;12.286;2022-08-19T17:37:37;26.40;78.40
31731;DHT22;18310;55.586;12.286;2022-08-19T17:40:40;24.60;76.90
31731;DHT22;18310;55.586;12.286;2022-08-19T17:43:45;24.60;77.30
31731;DHT22;18310;55.586;12.286;2022-08-19T17:46:49;24.60;77.40
31731;DHT22;18310;55.586;12.286;2022-08-19T17:49:54;24.20;77.70
31731;DHT22;18310;55.586;12.286;2022-08-19T17:52:58;24.50;77.10
31731;DHT22;18310;55.586;12.286;2022-08-19T17:56:02;23.40;76.90
31731;DHT22;18310;55.586;12.286;2022-08-19T17:59:07;24.40;77.70
31731;DHT22;18310;55.586;12.286;2022-08-19T18:02:15;24.50;77.90
31731;DHT22;18310;55.586;12.286;2022-08-19T18:05:25;24.50;77.10
31731;DHT22;18310;55.586;12.286;2022-08-19T18:08:31;24.40;77.10
31731;DHT22;18310;55.586;12.286;2022-08-19T18:14:40;24.30;76.70
31731;DHT22;18310;55.586;12.286;2022-08-19T18:17:45;24.30;77.30
31731;DHT22;18310;55.586;12.286;2022-08-19T18:20:49;24.30;77.20
31731;DHT22;18310;55.586;12.286;2022-08-19T18:23:52;24.20;78.00
31731;DHT22;18310;55.586;12.286;2022-08-19T18:27:03;28.20;80.00
31731;DHT22;18310;55.586;12.286;2022-08-19T18:30:10;24.10;77.40
31731;DHT22;18310;55.586;12.286;2022-08-19T18:33:14;24.10;77.50
31731;DHT22;18310;55.586;12.286;2022-08-19T18:36:17;25.10;77.90
31731;DHT22;18310;55.586;12.286;2022-08-19T18:39:41;24.00;77.40
31731;DHT22;18310;55.586;12.286;2022-08-19T18:43:03;24.00;77.30
31731;DHT22;18310;55.586;12.286;2022-08-19T18:46:27;24.00;77.40
31731;DHT22;18310;55.586;12.286;2022-08-19T18:49:48;24.50;77.70
31731;DHT22;18310;55.586;12.286;2022-08-19T18:52:51;23.90;77.20
31731;DHT22;18310;55.586;12.286;2022-08-19T18:55:56;24.00;78.00
31731;DHT22;18310;55.586;12.286;2022-08-19T18:59:00;23.90;77.40
31731;DHT22;18310;55.586;12.286;2022-08-19T19:02:05;23.90;77.50
31731;DHT22;18310;55.586;12.286;2022-08-19T19:05:11;23.90;77.60
31731;DHT22;18310;55.586;12.286;2022-08-19T19:11:26;25.80;78.50
31731;DHT22;18310;55.586;12.286;2022-08-19T19:14:34;23.70;77.60
31731;DHT22;18310;55.586;12.286;2022-08-19T19:17:51;26.50;79.10
31731;DHT22;18310;55.586;12.286;2022-08-19T19:20:56;23.80;77.80
31731;DHT22;18310;55.586;12.286;2022-08-19T19:23:59;23.70;77.40
31731;DHT22;18310;55.586;12.286;2022-08-19T19:27:04;23.70;77.40
31731;DHT22;18310;55.586;12.286;2022-08-19T19:30:09;23.60;77.50
31731;DHT22;18310;55.586;12.286;2022-08-19T19:33:15;22.50;77.00
31731;DHT22;18310;55.586;12.286;2022-08-19T19:36:19;23.60;77.90
31731;DHT22;18310;55.586;12.286;2022-08-19T19:39:22;23.30;77.50
31731;DHT22;18310;55.586;12.286;2022-08-19T19:45:49;23.50;77.00
31731;DHT22;18310;55.586;12.286;2022-08-19T19:48:54;23.50;77.50
31731;DHT22;18310;55.586;12.286;2022-08-19T19:52:01;23.50;77.40